Time;durP1;ratioP1;P1;durP2;ratioP2;P2;SDS_P1;SDS_P2;PMS_P1;PMS_P2;Temp;Humidity;BMP_temperature;BMP_pressure;BME280_temperature;BME280_humidity;BME280_pressure;Samples;Min_cycle;Max_cycle;Signal;HPM_P1;HPM_P2
2021/12/22 00:02:28;;;;;;;9.27;4.80;;;-0.80;91.10;;;;;;5056037;28;20197;-79
2021/12/22 00:04:57;;;;;;;8.60;5.57;;;-0.80;91.10;;;;;;5066178;22;20214;-79
2021/12/22 00:07:22;;;;;;;9.70;5.10;;;-0.80;91.20;;;;;;5032320;28;20480;-78
2021/12/22 00:09:48;;;;;;;8.33;4.50;;;-0.80;91.20;;;;;;5033814;28;20247;-77
2021/12/22 00:12:14;;;;;;;11.13;6.20;;;-0.80;91.20;;;;;;5016225;28;20617;-77
2021/12/22 00:14:39;;;;;;;8.13;4.77;;;-0.80;91.20;;;;;;5032127;28;20245;-78
2021/12/22 00:17:05;;;;;;;9.77;5.03;;;-0.90;91.10;;;;;;5033572;28;20285;-76
2021/12/22 00:19:31;;;;;;;7.77;4.70;;;-0.90;91.20;;;;;;5015439;28;20194;-78
2021/12/22 00:21:57;;;;;;;7.27;5.13;;;-0.90;91.20;;;;;;5032658;28;20158;-78
2021/12/22 00:24:22;;;;;;;9.27;5.20;;;-0.90;91.20;;;;;;5032474;28;20479;-77
2021/12/22 00:26:48;;;;;;;10.70;4.70;;;-0.90;91.20;;;;;;5032443;28;20620;-79
2021/12/22 00:29:16;;;;;;;9.10;4.60;;;-0.90;91.20;;;;;;5032335;28;20171;-75
2021/12/22 00:31:46;;;;;;;8.73;4.70;;;-0.80;91.50;;;;;;5033211;28;20557;-77
2021/12/22 00:34:16;;;;;;;7.57;4.73;;;-0.90;91.20;;;;;;5033963;28;20955;-77
2021/12/22 00:36:44;;;;;;;8.53;4.80;;;-0.90;91.20;;;;;;5032455;28;20460;-79
2021/12/22 00:39:09;;;;;;;10.80;3.90;;;-0.90;91.20;;;;;;5033781;28;20417;-76
2021/12/22 00:41:35;;;;;;;14.30;4.70;;;-0.90;91.60;;;;;;5031572;28;20968;-76
2021/12/22 00:44:01;;;;;;;8.40;4.03;;;-0.80;91.30;;;;;;5031617;28;20206;-76
2021/12/22 00:46:27;;;;;;;9.77;5.13;;;-0.80;91.30;;;;;;5033344;28;20206;-78
2021/12/22 00:48:52;;;;;;;8.43;4.03;;;-0.90;91.30;;;;;;5047160;28;20239;-77
2021/12/22 00:51:18;;;;;;;8.83;4.80;;;-0.90;91.30;;;;;;5033193;28;20175;-78
2021/12/22 00:53:44;;;;;;;8.67;4.60;;;-0.90;91.30;;;;;;5051579;28;20169;-76
2021/12/22 00:56:10;;;;;;;7.20;4.00;;;-0.80;91.30;;;;;;5051128;28;20185;-76
2021/12/22 00:58:36;;;;;;;9.30;4.53;;;-0.90;91.20;;;;;;5052607;28;20205;-77
2021/12/22 01:01:02;;;;;;;8.47;4.77;;;-0.90;91.30;;;;;;5035007;28;20933;-78
2021/12/22 01:03:28;;;;;;;6.80;3.60;;;-0.80;91.40;;;;;;5051292;28;20937;-77
2021/12/22 01:05:54;;;;;;;11.27;5.63;;;-0.90;91.20;;;;;;5030377;28;20796;-76
2021/12/22 01:08:20;;;;;;;8.57;3.80;;;-0.90;91.20;;;;;;5034095;28;20511;-78
2021/12/22 01:10:46;;;;;;;7.47;4.07;;;-0.90;91.20;;;;;;5045175;28;20467;-77
2021/12/22 01:13:12;;;;;;;8.90;4.40;;;-0.90;91.20;;;;;;5035164;28;20490;-77
2021/12/22 01:15:38;;;;;;;6.90;4.17;;;-0.90;91.40;;;;;;5052754;28;20483;-77
2021/12/22 01:18:12;;;;;;;9.70;4.37;;;-0.90;91.30;;;;;;5048585;28;20428;-78
2021/12/22 01:20:57;;;;;;;7.87;4.13;;;-1.00;91.30;;;;;;5038705;28;20421;-77
2021/12/22 01:23:23;;;;;;;14.23;4.27;;;-1.00;91.40;;;;;;5051622;28;20515;-77
2021/12/22 01:25:49;;;;;;;10.80;3.93;;;-1.00;91.40;;;;;;5033759;28;20516;-76
2021/12/22 01:28:17;;;;;;;8.40;4.50;;;-1.00;91.40;;;;;;5052631;28;20272;-77
2021/12/22 01:30:46;;;;;;;9.10;4.83;;;-1.00;91.50;;;;;;5041315;28;20859;-75
2021/12/22 01:33:13;;;;;;;12.13;3.60;;;-1.00;91.50;;;;;;5033795;28;20416;-78
2021/12/22 01:35:39;;;;;;;7.97;4.47;;;-1.10;91.40;;;;;;5032753;28;20489;-77
2021/12/22 01:38:07;;;;;;;7.07;3.80;;;-1.10;91.40;;;;;;5034933;28;20433;-76
2021/12/22 01:40:34;;;;;;;10.50;4.47;;;-1.10;91.50;;;;;;5039470;28;20433;-75
2021/12/22 01:43:02;;;;;;;7.37;4.30;;;-1.10;91.60;;;;;;5037361;28;20413;-76
2021/12/22 01:49:12;;;;;;;6.90;3.80;;;-1.20;91.70;;;;;;5035447;28;20496;-78
2021/12/22 01:51:38;;;;;;;15.87;4.87;;;-1.20;91.80;;;;;;5019445;28;20409;-77
2021/12/22 01:54:08;;;;;;;10.93;4.90;;;-1.20;91.90;;;;;;5017110;28;20432;-77
2021/12/22 01:56:37;;;;;;;7.80;4.23;;;-1.20;92.00;;;;;;5034550;28;20706;-76
2021/12/22 01:59:07;;;;;;;12.77;4.90;;;-1.20;92.00;;;;;;5035205;28;20491;-77
2021/12/22 02:01:34;;;;;;;10.27;4.73;;;-1.20;92.00;;;;;;5035164;28;20918;-78
2021/12/22 02:04:02;;;;;;;8.17;5.00;;;-1.20;91.90;;;;;;5032820;28;20431;-78
2021/12/22 02:06:27;;;;;;;10.00;4.90;;;-1.20;91.90;;;;;;5031872;28;20457;-77
2021/12/22 02:08:54;;;;;;;9.23;4.10;;;-1.20;92.00;;;;;;5033860;28;20432;-76
2021/12/22 02:11:21;;;;;;;8.20;4.33;;;-1.20;92.10;;;;;;5032489;28;20163;-76
2021/12/22 02:13:54;;;;;;;7.80;4.27;;;-1.20;92.10;;;;;;5031983;28;20413;-76
2021/12/22 02:16:26;;;;;;;6.77;3.90;;;-1.20;92.10;;;;;;5033830;28;20459;-76
2021/12/22 02:18:53;;;;;;;13.10;4.50;;;-1.20;92.10;;;;;;5032872;28;20476;-77
2021/12/22 02:21:21;;;;;;;11.17;5.20;;;-1.20;92.00;;;;;;5032902;28;20451;-77
2021/12/22 02:24:24;;;;;;;6.03;4.00;;;-1.30;92.00;;;;;;5034833;28;20441;-76
2021/12/22 02:27:02;;;;;;;9.17;4.80;;;-1.30;91.90;;;;;;5033322;28;20513;-77
2021/12/22 02:29:35;;;;;;;8.63;4.90;;;-1.30;92.00;;;;;;5032658;28;20817;-77
2021/12/22 02:32:15;;;;;;;5.77;4.60;;;-1.30;92.00;;;;;;5031399;28;20441;-76
2021/12/22 02:34:44;;;;;;;5.67;3.83;;;-1.30;92.00;;;;;;5031113;28;21049;-78
2021/12/22 02:37:14;;;;;;;8.60;4.60;;;-1.30;92.00;;;;;;5013982;28;20429;-77
2021/12/22 02:39:57;;;;;;;7.33;3.83;;;-1.30;92.00;;;;;;5031330;28;20434;-76
2021/12/22 02:42:25;;;;;;;8.73;3.93;;;-1.30;92.10;;;;;;5031382;28;20452;-76
2021/12/22 02:44:51;;;;;;;11.17;4.90;;;-1.30;92.10;;;;;;5029437;28;20512;-77
2021/12/22 02:47:22;;;;;;;10.23;4.10;;;-1.30;92.00;;;;;;5030295;28;20545;-77
2021/12/22 02:49:48;;;;;;;8.63;3.60;;;-1.40;92.00;;;;;;5033494;28;20232;-76
2021/12/22 02:52:15;;;;;;;5.50;3.30;;;-1.40;92.00;;;;;;5034403;28;20412;-77
2021/12/22 02:54:48;;;;;;;7.23;4.07;;;-1.40;92.00;;;;;;5037778;28;20459;-77
2021/12/22 02:57:31;;;;;;;8.57;5.03;;;-1.40;92.00;;;;;;5035490;28;20425;-77
2021/12/22 03:00:26;;;;;;;7.17;4.03;;;-1.40;92.00;;;;;;5035299;28;20425;-77
2021/12/22 03:03:04;;;;;;;6.93;3.70;;;-1.40;92.10;;;;;;5033491;28;20429;-76
2021/12/22 03:05:30;;;;;;;12.17;4.63;;;-1.40;92.20;;;;;;5034420;28;20460;-77
2021/12/22 03:07:56;;;;;;;6.77;3.63;;;-1.40;92.20;;;;;;5035638;28;20466;-77
2021/12/22 03:10:22;;;;;;;8.33;3.87;;;-1.50;92.10;;;;;;5035583;28;20425;-78
2021/12/22 03:12:55;;;;;;;8.97;4.30;;;-1.50;92.20;;;;;;5035721;28;20456;-77
2021/12/22 03:15:21;;;;;;;5.97;4.00;;;-1.50;92.20;;;;;;5036862;28;20531;-77
2021/12/22 03:17:48;;;;;;;7.27;3.70;;;-1.50;92.20;;;;;;5038036;28;20918;-77
2021/12/22 03:20:15;;;;;;;4.90;2.40;;;-1.50;92.20;;;;;;5043969;28;20991;-76
2021/12/22 03:22:43;;;;;;;8.60;3.73;;;-1.50;92.30;;;;;;5039681;28;20436;-76
2021/12/22 03:25:15;;;;;;;8.83;3.87;;;-1.50;92.30;;;;;;5038853;28;20445;-76
2021/12/22 03:27:43;;;;;;;3.73;2.97;;;-1.50;92.30;;;;;;5032949;28;20421;-76
2021/12/22 03:30:10;;;;;;;8.97;3.97;;;-1.50;92.30;;;;;;5048841;28;20463;-77
2021/12/22 03:32:36;;;;;;;4.63;2.73;;;-1.50;92.20;;;;;;5016385;28;20456;-77
2021/12/22 03:35:01;;;;;;;5.03;3.57;;;-1.50;92.20;;;;;;5033535;28;20491;-78
2021/12/22 03:37:27;;;;;;;8.03;3.60;;;-1.50;92.30;;;;;;5035737;28;20169;-78
2021/12/22 03:39:53;;;;;;;5.70;3.97;;;-1.50;92.20;;;;;;5035207;28;20853;-76
2021/12/22 03:42:18;;;;;;;8.40;4.00;;;-1.50;92.20;;;;;;5045224;28;20720;-77
2021/12/22 03:44:45;;;;;;;12.90;4.00;;;-1.60;92.20;;;;;;5046431;28;20268;-75
2021/12/22 03:47:11;;;;;;;8.67;3.37;;;-1.60;92.20;;;;;;5037972;28;20202;-77
2021/12/22 03:49:37;;;;;;;8.33;3.73;;;-1.50;92.30;;;;;;5032004;28;20474;-77
2021/12/22 03:52:04;;;;;;;9.67;5.00;;;-1.60;92.30;;;;;;5035095;28;20501;-77
2021/12/22 03:54:30;;;;;;;6.53;3.53;;;-1.60;92.30;;;;;;5033715;28;20190;-77
2021/12/22 03:56:56;;;;;;;7.10;3.23;;;-1.60;92.20;;;;;;5030957;28;20444;-76
2021/12/22 03:59:23;;;;;;;9.10;3.77;;;-1.60;92.10;;;;;;5032420;28;20198;-77
2021/12/22 04:01:50;;;;;;;6.20;3.80;;;-1.60;92.30;;;;;;5031382;28;20425;-78
2021/12/22 04:04:18;;;;;;;8.13;3.93;;;-1.60;92.30;;;;;;5032735;28;20499;-78
2021/12/22 04:06:46;;;;;;;6.50;3.50;;;-1.60;92.30;;;;;;5031186;28;20477;-77
2021/12/22 04:09:14;;;;;;;6.20;3.53;;;-1.60;92.30;;;;;;5033702;28;20511;-77
2021/12/22 04:11:40;;;;;;;10.33;3.40;;;-1.70;92.40;;;;;;5029915;28;20428;-78
2021/12/22 04:14:06;;;;;;;12.20;4.40;;;-1.70;92.40;;;;;;5032504;28;20429;-77
2021/12/22 04:16:32;;;;;;;6.77;3.53;;;-1.70;92.30;;;;;;5031265;28;20421;-77
2021/12/22 04:18:58;;;;;;;9.77;3.90;;;-1.70;92.30;;;;;;5032826;28;20516;-76
2021/12/22 04:21:23;;;;;;;5.97;3.87;;;-1.60;92.40;;;;;;5033112;28;20170;-76
2021/12/22 04:23:49;;;;;;;4.57;3.30;;;-1.70;92.40;;;;;;5033118;28;20484;-76
2021/12/22 04:26:15;;;;;;;9.00;5.10;;;-1.70;92.50;;;;;;5030419;28;20690;-77
2021/12/22 04:28:42;;;;;;;6.10;3.77;;;-1.70;92.50;;;;;;5031927;28;20166;-77
2021/12/22 04:31:07;;;;;;;7.10;4.50;;;-1.70;92.40;;;;;;5035200;28;20531;-77
2021/12/22 04:33:33;;;;;;;6.57;3.90;;;-1.70;92.50;;;;;;5020435;28;20414;-77
2021/12/22 04:35:59;;;;;;;7.80;3.33;;;-1.70;92.50;;;;;;5031826;28;20794;-77
2021/12/22 04:38:25;;;;;;;13.20;5.30;;;-1.70;92.50;;;;;;5034560;28;20421;-75
2021/12/22 04:40:51;;;;;;;5.87;3.37;;;-1.70;92.60;;;;;;5032988;28;20175;-78
2021/12/22 04:43:17;;;;;;;5.20;2.83;;;-1.70;92.60;;;;;;5032927;28;20970;-78
2021/12/22 04:45:42;;;;;;;6.07;3.30;;;-1.70;92.50;;;;;;5030025;28;20293;-76
2021/12/22 04:48:09;;;;;;;11.50;4.47;;;-1.70;92.50;;;;;;5032835;28;20174;-77
2021/12/22 04:50:36;;;;;;;9.53;4.10;;;-1.70;92.40;;;;;;5032993;28;20536;-77
2021/12/22 04:53:24;;;;;;;9.57;4.50;;;-1.70;92.50;;;;;;5032727;28;20772;-77
2021/12/22 04:55:50;;;;;;;9.37;4.23;;;-1.70;92.60;;;;;;5032018;28;20440;-77
2021/12/22 04:58:15;;;;;;;9.60;4.50;;;-1.70;92.60;;;;;;5032935;28;20890;-76
2021/12/22 05:00:41;;;;;;;4.80;3.30;;;-1.70;92.70;;;;;;5032441;28;20266;-77
2021/12/22 05:03:07;;;;;;;9.47;3.67;;;-1.70;92.60;;;;;;5035409;28;20198;-77
2021/12/22 05:05:33;;;;;;;6.90;4.30;;;-1.70;92.70;;;;;;5031962;28;20193;-77
2021/12/22 05:07:59;;;;;;;6.80;4.07;;;-1.70;92.80;;;;;;5034637;28;20249;-76
2021/12/22 05:10:26;;;;;;;8.57;3.67;;;-1.70;92.70;;;;;;5035483;28;20257;-77
2021/12/22 05:12:53;;;;;;;19.37;4.20;;;-1.70;92.70;;;;;;5034619;28;20424;-76
2021/12/22 05:15:22;;;;;;;6.33;3.50;;;-1.70;92.90;;;;;;5030727;28;20445;-77
2021/12/22 05:20:22;;;;;;;7.23;3.37;;;-1.70;92.80;;;;;;5032077;28;20571;-76
2021/12/22 05:22:48;;;;;;;7.00;3.37;;;-1.60;92.80;;;;;;5042105;28;20431;-76
2021/12/22 05:25:14;;;;;;;6.43;3.40;;;-1.70;92.70;;;;;;5032855;28;20452;-77
2021/12/22 05:27:41;;;;;;;4.50;3.10;;;-1.70;92.70;;;;;;5030825;28;20422;-77
2021/12/22 05:30:09;;;;;;;9.23;3.70;;;-1.70;92.80;;;;;;5034031;28;20438;-77
2021/12/22 05:32:36;;;;;;;12.30;4.13;;;-1.70;93.10;;;;;;5051898;28;20420;-75
2021/12/22 05:35:06;;;;;;;7.43;3.23;;;-1.70;92.80;;;;;;5050289;28;20929;-77
2021/12/22 05:37:31;;;;;;;6.30;3.93;;;-1.70;92.70;;;;;;5041599;28;20496;-76
2021/12/22 05:39:57;;;;;;;6.20;3.50;;;-1.70;92.70;;;;;;5056856;28;20436;-76
2021/12/22 05:42:24;;;;;;;5.70;3.90;;;-1.70;92.70;;;;;;5059153;28;20154;-77
2021/12/22 05:44:50;;;;;;;9.90;3.90;;;-1.70;92.70;;;;;;5055217;28;20296;-77
2021/12/22 05:47:16;;;;;;;6.20;3.80;;;-1.70;92.60;;;;;;5046339;28;20936;-76
2021/12/22 05:49:43;;;;;;;4.90;4.03;;;-1.70;92.60;;;;;;5052416;28;20941;-76
2021/12/22 05:52:10;;;;;;;6.63;4.00;;;-1.70;92.60;;;;;;5054635;28;20188;-76
2021/12/22 05:54:59;;;;;;;8.10;3.87;;;-1.70;92.60;;;;;;5057197;28;20468;-77
2021/12/22 05:57:26;;;;;;;6.37;2.73;;;-1.70;92.60;;;;;;5042933;28;20466;-75
2021/12/22 06:00:24;;;;;;;5.33;3.27;;;-1.70;92.60;;;;;;5018321;28;20416;-76
2021/12/22 06:02:51;;;;;;;6.97;3.30;;;-1.70;92.60;;;;;;5047772;28;20424;-77
2021/12/22 06:05:18;;;;;;;6.47;3.60;;;-1.70;92.70;;;;;;5061169;28;20468;-76
2021/12/22 06:07:45;;;;;;;7.40;2.60;;;-1.70;92.60;;;;;;5050994;28;20914;-77
2021/12/22 06:10:10;;;;;;;6.90;4.10;;;-1.60;92.60;;;;;;5049832;28;20519;-76
2021/12/22 06:12:36;;;;;;;6.13;4.03;;;-1.60;92.60;;;;;;5051809;28;20447;-77
2021/12/22 06:15:03;;;;;;;7.70;4.27;;;-1.60;92.60;;;;;;5037350;28;20694;-76
2021/12/22 06:17:29;;;;;;;11.00;5.10;;;-1.60;92.60;;;;;;5031041;28;20178;-75
2021/12/22 06:19:55;;;;;;;12.73;4.80;;;-1.60;92.50;;;;;;5031342;28;20786;-76
2021/12/22 06:22:22;;;;;;;8.17;4.00;;;-1.60;92.60;;;;;;5032070;28;20758;-76
2021/12/22 06:24:48;;;;;;;4.23;3.80;;;-1.60;92.60;;;;;;5034779;28;20444;-75
2021/12/22 06:27:14;;;;;;;4.17;3.33;;;-1.60;92.60;;;;;;5035266;28;20499;-76
2021/12/22 06:29:39;;;;;;;7.10;3.90;;;-1.60;92.60;;;;;;5039840;28;20767;-76
2021/12/22 06:32:06;;;;;;;6.77;4.00;;;-1.70;92.50;;;;;;5039338;28;20166;-75
2021/12/22 06:34:34;;;;;;;11.70;4.60;;;-1.60;92.60;;;;;;5037891;28;20217;-77
2021/12/22 06:37:00;;;;;;;7.50;4.30;;;-1.70;92.60;;;;;;5036744;28;20408;-77
2021/12/22 06:39:26;;;;;;;4.80;3.57;;;-1.70;92.60;;;;;;5039016;28;20436;-78
2021/12/22 06:41:51;;;;;;;8.00;4.30;;;-1.70;92.60;;;;;;5038641;28;20195;-76
2021/12/22 06:44:17;;;;;;;7.23;3.63;;;-1.70;92.60;;;;;;5020435;28;20650;-76
2021/12/22 06:46:43;;;;;;;13.03;4.40;;;-1.70;92.60;;;;;;5039239;28;20663;-77
2021/12/22 06:49:10;;;;;;;6.90;3.57;;;-1.70;92.60;;;;;;5039440;28;20189;-77
2021/12/22 06:51:38;;;;;;;4.53;3.27;;;-1.70;92.60;;;;;;5016853;28;20278;-78
2021/12/22 06:54:04;;;;;;;7.40;4.37;;;-1.70;92.60;;;;;;5039342;28;20449;-76
2021/12/22 06:56:30;;;;;;;7.53;3.40;;;-1.70;92.60;;;;;;5041088;28;20232;-77
2021/12/22 06:58:57;;;;;;;6.00;4.30;;;-1.80;92.60;;;;;;5024257;28;20182;-77
2021/12/22 07:01:23;;;;;;;7.83;4.30;;;-1.70;92.60;;;;;;5037078;28;20555;-77
2021/12/22 07:03:50;;;;;;;7.57;4.00;;;-1.80;92.50;;;;;;5038074;28;20429;-78
2021/12/22 07:06:16;;;;;;;5.60;3.80;;;-1.80;92.90;;;;;;5035885;28;20469;-75
2021/12/22 07:08:42;;;;;;;7.37;3.50;;;-1.80;92.60;;;;;;5035271;28;20516;-76
2021/12/22 07:11:11;;;;;;;9.07;4.60;;;-1.80;92.60;;;;;;5039568;28;20457;-76
2021/12/22 07:13:37;;;;;;;10.83;4.30;;;-1.80;92.70;;;;;;5037951;28;20428;-76
2021/12/22 07:16:02;;;;;;;8.00;4.40;;;-1.80;92.80;;;;;;5035699;28;20540;-76
2021/12/22 07:18:31;;;;;;;8.37;5.80;;;-1.80;92.80;;;;;;5036538;28;20480;-77
2021/12/22 07:20:57;;;;;;;11.33;4.13;;;-1.80;93.20;;;;;;5035431;28;20166;-77
2021/12/22 07:23:22;;;;;;;5.57;3.60;;;-1.70;92.80;;;;;;5033541;28;20784;-78
2021/12/22 07:25:48;;;;;;;12.17;4.97;;;-1.70;92.80;;;;;;5034085;28;20453;-77
2021/12/22 07:28:14;;;;;;;9.90;4.30;;;-1.70;92.80;;;;;;5032377;28;20568;-76
2021/12/22 07:30:40;;;;;;;8.30;4.30;;;-1.70;92.70;;;;;;5027963;28;20246;-76
2021/12/22 07:33:06;;;;;;;7.30;4.40;;;-1.70;92.70;;;;;;5023310;28;20487;-76
2021/12/22 07:35:50;;;;;;;7.10;4.07;;;-1.70;92.70;;;;;;5027919;28;20652;-76
2021/12/22 07:38:26;;;;;;;9.70;4.83;;;-1.70;92.60;;;;;;5031919;28;20433;-75
2021/12/22 07:40:52;;;;;;;10.53;4.83;;;-1.70;92.50;;;;;;5015373;28;20450;-77
2021/12/22 07:43:18;;;;;;;7.60;3.90;;;-1.70;92.60;;;;;;5037174;28;20494;-78
2021/12/22 07:45:44;;;;;;;6.27;4.20;;;-1.60;92.60;;;;;;5041017;28;20460;-77
2021/12/22 07:48:10;;;;;;;10.63;4.70;;;-1.60;92.50;;;;;;5033080;28;20412;-78
2021/12/22 07:50:36;;;;;;;12.80;3.63;;;-1.60;92.50;;;;;;5035541;28;20412;-77
2021/12/22 07:53:02;;;;;;;9.40;3.97;;;-1.60;92.40;;;;;;5034733;28;20179;-77
2021/12/22 07:55:30;;;;;;;6.50;5.20;;;-1.50;92.40;;;;;;5035977;28;20222;-76
2021/12/22 07:57:56;;;;;;;6.67;5.10;;;-1.50;92.30;;;;;;5034415;28;20181;-77
2021/12/22 08:00:22;;;;;;;8.80;4.60;;;-1.50;92.60;;;;;;5040697;28;20503;-77
2021/12/22 08:02:47;;;;;;;15.60;6.43;;;-1.40;92.20;;;;;;5035554;28;20240;-76
2021/12/22 08:05:13;;;;;;;14.03;4.67;;;-1.40;92.10;;;;;;5034221;28;20206;-77
2021/12/22 08:07:39;;;;;;;8.37;4.57;;;-1.40;92.10;;;;;;5033129;28;20235;-76
2021/12/22 08:10:06;;;;;;;6.10;4.40;;;-1.40;91.90;;;;;;5034032;28;20969;-77
2021/12/22 08:12:32;;;;;;;11.80;4.63;;;-1.30;91.70;;;;;;5033700;28;20182;-76
2021/12/22 08:14:58;;;;;;;6.63;4.50;;;-1.30;91.80;;;;;;5036650;28;20548;-76
2021/12/22 08:17:27;;;;;;;8.30;5.07;;;-1.30;91.80;;;;;;5034891;28;20431;-78
2021/12/22 08:19:53;;;;;;;13.43;4.30;;;-1.20;91.70;;;;;;5035486;28;20435;-76
2021/12/22 08:22:19;;;;;;;8.10;5.10;;;-1.10;91.80;;;;;;5036941;28;20436;-77
2021/12/22 08:24:45;;;;;;;6.50;4.27;;;-1.10;91.70;;;;;;5058893;28;20484;-73
2021/12/22 08:27:11;;;;;;;8.53;4.17;;;-1.00;91.50;;;;;;5042762;28;20202;-75
2021/12/22 08:29:42;;;;;;;7.23;4.10;;;-1.00;91.30;;;;;;5042285;28;20430;-74
2021/12/22 08:32:09;;;;;;;7.20;4.57;;;-0.90;91.30;;;;;;5035183;28;20254;-74
2021/12/22 08:34:37;;;;;;;11.13;5.13;;;-0.90;91.00;;;;;;5033272;28;20445;-73
2021/12/22 08:39:49;;;;;;;10.60;4.30;;;-0.90;90.60;;;;;;5032826;28;21021;-74
2021/12/22 08:42:15;;;;;;;9.30;4.57;;;-0.90;90.60;;;;;;5030983;28;20475;-72
2021/12/22 08:44:41;;;;;;;8.50;6.13;;;-0.80;90.80;;;;;;5027762;28;20900;-72
2021/12/22 08:47:08;;;;;;;11.17;6.13;;;-0.80;90.40;;;;;;5036916;28;20460;-75
2021/12/22 08:49:34;;;;;;;12.57;4.17;;;-0.80;90.40;;;;;;5033405;28;20163;-74
2021/12/22 08:52:00;;;;;;;10.57;4.93;;;-0.80;90.30;;;;;;5031219;28;20933;-74
2021/12/22 08:54:26;;;;;;;8.03;3.80;;;-0.80;90.40;;;;;;5030592;28;20440;-72
2021/12/22 08:56:55;;;;;;;15.40;5.97;;;-0.80;90.40;;;;;;5034963;28;20439;-72
2021/12/22 08:59:23;;;;;;;8.10;5.50;;;-0.70;90.20;;;;;;5031345;28;20471;-75
2021/12/22 09:01:49;;;;;;;12.97;6.00;;;-0.70;90.20;;;;;;5030211;28;20463;-72
2021/12/22 09:04:16;;;;;;;8.03;4.63;;;-0.60;90.30;;;;;;5030379;28;20420;-72
2021/12/22 09:06:42;;;;;;;9.37;5.30;;;-0.40;90.30;;;;;;5031548;28;20826;-74
2021/12/22 09:09:09;;;;;;;8.53;5.10;;;-0.30;90.40;;;;;;5032062;28;20508;-74
2021/12/22 09:11:35;;;;;;;11.00;5.73;;;-0.10;90.20;;;;;;5031801;28;20571;-73
2021/12/22 09:14:03;;;;;;;9.97;6.07;;;0.10;89.30;;;;;;5030828;28;20941;-73
2021/12/22 09:16:29;;;;;;;9.63;5.67;;;0.40;89.60;;;;;;5029770;28;20412;-73
2021/12/22 09:18:56;;;;;;;6.40;4.07;;;0.50;85.80;;;;;;5032825;28;20421;-72
2021/12/22 09:21:22;;;;;;;8.47;5.53;;;0.60;85.50;;;;;;5032233;28;20430;-74
2021/12/22 09:23:48;;;;;;;7.30;5.00;;;0.60;85.30;;;;;;5033803;28;20451;-73
2021/12/22 09:26:15;;;;;;;8.90;4.90;;;0.80;86.70;;;;;;5031455;28;20961;-72
2021/12/22 09:28:44;;;;;;;8.93;5.20;;;1.40;85.00;;;;;;5030625;28;20436;-73
2021/12/22 09:31:10;;;;;;;9.17;4.83;;;1.80;84.10;;;;;;5029952;28;20786;-73
2021/12/22 09:33:36;;;;;;;15.37;10.63;;;2.70;78.90;;;;;;5032815;28;20417;-73
2021/12/22 09:36:05;;;;;;;11.80;5.23;;;3.60;76.50;;;;;;5030986;28;20499;-74
2021/12/22 09:38:31;;;;;;;6.80;4.93;;;4.40;72.20;;;;;;5031118;28;20490;-73
2021/12/22 09:41:01;;;;;;;8.67;5.53;;;5.00;68.50;;;;;;5031979;28;20942;-73
2021/12/22 09:43:28;;;;;;;9.00;5.90;;;5.30;63.50;;;;;;5031745;28;20486;-72
2021/12/22 09:46:00;;;;;;;9.43;6.70;;;5.30;61.60;;;;;;5031447;28;20968;-73
2021/12/22 09:53:34;;;;;;;11.63;5.50;;;5.50;58.40;;;;;;5027828;28;20433;-75
2021/12/22 09:56:00;;;;;;;10.87;5.57;;;5.90;59.30;;;;;;5018271;28;20475;-73
2021/12/22 09:58:27;;;;;;;12.83;6.33;;;6.50;58.10;;;;;;5031317;28;20491;-74
2021/12/22 10:00:53;;;;;;;9.57;6.10;;;6.90;54.50;;;;;;5036252;28;20483;-72
2021/12/22 10:03:20;;;;;;;9.70;6.00;;;7.30;54.30;;;;;;5038310;28;20420;-73
2021/12/22 10:05:46;;;;;;;9.53;5.43;;;7.80;53.40;;;;;;5034918;28;20507;-70
2021/12/22 10:08:25;;;;;;;9.27;5.17;;;8.00;51.50;;;;;;5034218;28;20921;-73
2021/12/22 10:11:04;;;;;;;8.57;5.63;;;7.40;50.90;;;;;;5018317;28;20180;-72
2021/12/22 10:13:31;;;;;;;13.67;6.60;;;7.10;51.80;;;;;;5033964;28;20452;-72
2021/12/22 10:15:58;;;;;;;12.07;6.23;;;6.80;52.00;;;;;;5036066;28;20479;-69
2021/12/22 10:18:33;;;;;;;9.37;7.33;;;6.30;53.30;;;;;;5038408;28;20418;-72
2021/12/22 10:21:17;;;;;;;13.53;7.17;;;5.70;54.40;;;;;;5046213;28;20432;-73
2021/12/22 10:23:49;;;;;;;9.80;6.77;;;5.20;55.80;;;;;;5039517;28;20424;-73
2021/12/22 10:26:17;;;;;;;7.17;5.50;;;4.70;57.10;;;;;;5025061;28;20453;-73
2021/12/22 10:28:57;;;;;;;12.53;6.67;;;4.50;58.40;;;;;;5031445;28;20420;-67
2021/12/22 10:31:40;;;;;;;10.40;7.07;;;4.00;60.00;;;;;;5023258;28;20429;-67
2021/12/22 10:34:10;;;;;;;10.90;6.43;;;3.60;62.10;;;;;;5016541;28;20779;-67
2021/12/22 10:36:53;;;;;;;12.63;6.83;;;3.50;63.60;;;;;;5034764;28;20425;-73
2021/12/22 10:39:21;;;;;;;12.93;8.87;;;3.30;64.30;;;;;;5033876;28;20455;-71
2021/12/22 10:41:47;;;;;;;10.07;7.40;;;3.20;65.40;;;;;;5033592;28;20421;-71
2021/12/22 10:44:12;;;;;;;15.30;7.40;;;3.00;66.60;;;;;;5035047;28;20427;-71
2021/12/22 10:46:38;;;;;;;16.33;8.20;;;3.00;66.80;;;;;;5032732;28;20463;-71
2021/12/22 10:49:22;;;;;;;10.80;7.60;;;2.90;66.70;;;;;;5034033;28;20205;-72
2021/12/22 10:52:00;;;;;;;13.90;7.10;;;2.80;68.60;;;;;;5032797;28;20574;-72
2021/12/22 10:54:35;;;;;;;10.90;6.90;;;2.80;68.90;;;;;;5032843;28;20531;-71
2021/12/22 10:57:02;;;;;;;10.57;7.50;;;2.80;67.90;;;;;;5033914;28;20476;-70
2021/12/22 10:59:41;;;;;;;8.03;6.17;;;2.70;68.40;;;;;;5034836;28;20888;-72
2021/12/22 11:02:07;;;;;;;13.57;7.30;;;2.60;68.60;;;;;;5020356;28;20461;-71
2021/12/22 11:04:35;;;;;;;12.07;6.73;;;2.50;69.80;;;;;;5030798;28;20948;-71
2021/12/22 11:07:22;;;;;;;8.90;6.37;;;2.50;69.60;;;;;;5032722;28;20846;-71
2021/12/22 11:09:49;;;;;;;11.10;7.27;;;2.50;70.40;;;;;;5013521;28;20410;-70
2021/12/22 11:12:17;;;;;;;11.93;7.67;;;2.50;70.90;;;;;;5021996;28;20508;-71
2021/12/22 11:14:47;;;;;;;12.97;6.83;;;2.50;70.30;;;;;;5033570;28;20449;-71
2021/12/22 11:17:19;;;;;;;12.87;7.10;;;2.50;71.30;;;;;;5033566;28;20809;-71
2021/12/22 11:19:57;;;;;;;10.13;6.30;;;2.40;70.40;;;;;;5032376;28;20476;-72
2021/12/22 11:22:51;;;;;;;16.97;8.20;;;2.40;70.50;;;;;;5017056;28;20424;-71
2021/12/22 11:25:17;;;;;;;13.87;5.80;;;2.40;70.10;;;;;;5032927;28;20869;-72
2021/12/22 11:27:43;;;;;;;11.83;6.80;;;2.30;71.00;;;;;;5032127;28;20441;-71
2021/12/22 11:30:10;;;;;;;13.87;7.60;;;2.30;70.90;;;;;;5032473;28;20806;-70
2021/12/22 11:32:38;;;;;;;12.20;6.77;;;2.30;71.60;;;;;;5034401;28;20448;-73
2021/12/22 11:35:07;;;;;;;13.13;6.80;;;2.30;71.50;;;;;;5025875;28;20480;-73
2021/12/22 11:37:33;;;;;;;16.40;6.97;;;2.30;71.60;;;;;;5030612;28;20425;-72
2021/12/22 11:40:04;;;;;;;11.53;6.00;;;2.30;71.40;;;;;;5033952;28;20943;-72
2021/12/22 11:42:37;;;;;;;11.47;6.47;;;2.30;71.60;;;;;;5023903;28;20833;-74
2021/12/22 11:45:10;;;;;;;11.13;6.67;;;2.30;71.40;;;;;;5028965;28;20575;-73
2021/12/22 11:47:38;;;;;;;9.57;5.67;;;2.30;71.40;;;;;;5031091;28;20463;-73
2021/12/22 11:50:06;;;;;;;15.40;8.20;;;2.30;71.00;;;;;;5021159;28;20525;-73
2021/12/22 11:52:36;;;;;;;14.83;6.97;;;2.40;71.70;;;;;;5031157;28;20424;-74
2021/12/22 11:55:43;;;;;;;12.30;6.63;;;2.40;71.60;;;;;;5031300;28;20449;-73
2021/12/22 11:58:21;;;;;;;15.17;7.97;;;2.50;71.80;;;;;;5013507;28;20776;-73
2021/12/22 12:01:02;;;;;;;17.83;7.50;;;2.60;71.40;;;;;;5032206;28;20413;-73
2021/12/22 12:03:36;;;;;;;13.03;7.83;;;2.60;70.70;;;;;;5032772;28;21007;-74
2021/12/22 12:06:06;;;;;;;11.60;7.43;;;2.60;70.10;;;;;;5034286;28;20768;-72
2021/12/22 12:08:41;;;;;;;13.97;7.83;;;2.60;70.40;;;;;;5034055;28;20479;-72
2021/12/22 12:11:09;;;;;;;29.43;15.47;;;2.70;70.50;;;;;;5033667;28;20397;-72
2021/12/22 12:13:56;;;;;;;11.53;7.53;;;2.80;71.30;;;;;;5032167;28;20433;-72
2021/12/22 12:22:33;;;;;;;16.27;8.83;;;2.90;69.30;;;;;;5014535;28;20985;-73
2021/12/22 12:25:00;;;;;;;13.53;8.83;;;2.90;69.40;;;;;;5032082;28;20452;-72
2021/12/22 12:27:43;;;;;;;11.43;6.67;;;2.90;69.00;;;;;;5033526;28;20537;-75
2021/12/22 12:30:50;;;;;;;15.83;7.03;;;2.80;68.80;;;;;;5047487;28;20494;-73
2021/12/22 12:33:45;;;;;;;12.30;7.90;;;2.80;68.90;;;;;;5034588;28;20484;-74
2021/12/22 12:36:13;;;;;;;9.70;6.93;;;2.80;69.20;;;;;;5036277;28;20452;-71
2021/12/22 12:38:55;;;;;;;14.60;8.20;;;2.90;69.00;;;;;;5036767;28;20437;-73
2021/12/22 12:41:28;;;;;;;11.33;6.33;;;2.90;67.90;;;;;;5032831;28;20531;-74
2021/12/22 12:43:57;;;;;;;15.17;7.60;;;2.90;67.70;;;;;;5032847;28;20550;-72
2021/12/22 12:46:49;;;;;;;12.00;6.97;;;2.90;68.20;;;;;;5032220;28;20942;-71
2021/12/22 12:49:15;;;;;;;13.00;7.63;;;2.80;68.00;;;;;;5029323;28;20421;-73
2021/12/22 12:51:46;;;;;;;10.90;7.13;;;2.80;67.80;;;;;;5034793;28;20412;-71
2021/12/22 12:54:17;;;;;;;17.30;7.50;;;2.80;68.70;;;;;;5032993;28;20414;-73
2021/12/22 12:56:51;;;;;;;13.40;8.43;;;2.90;68.00;;;;;;5034140;28;20411;-74
2021/12/22 12:59:26;;;;;;;10.90;7.57;;;3.00;68.20;;;;;;5036570;28;20436;-74
2021/12/22 13:01:52;;;;;;;13.80;9.07;;;3.00;67.60;;;;;;5037671;28;20417;-74
2021/12/22 13:04:24;;;;;;;11.30;6.63;;;3.00;67.60;;;;;;5039079;28;20417;-72
2021/12/22 13:07:00;;;;;;;14.23;7.50;;;3.00;67.70;;;;;;5040162;28;20571;-72
2021/12/22 13:09:27;;;;;;;11.53;6.73;;;3.00;67.50;;;;;;5051203;28;20421;-73
2021/12/22 13:11:58;;;;;;;15.17;7.60;;;3.00;67.00;;;;;;5035030;28;20425;-72
2021/12/22 13:17:19;;;;;;;9.33;6.23;;;2.80;67.10;;;;;;5025308;28;20429;-72
2021/12/22 13:19:50;;;;;;;12.10;7.00;;;2.80;66.90;;;;;;5030276;28;20427;-72